ITY425 LIRF-LGAV
Flight info
| Callsign | ITY425 |
|---|---|
| Flight time | 1h 42m |
| Altitude | 37000 |
| Route | XIBRI5AXPEPIX9A/25 PEPIX UNIXO DCT LAMEB DCT RUTOM DCT ARA NEMES |
| Aircraft | A320/M-SDE3FGHIRWY/LB1 |
Departure
| Time | 2026-05-06 18:10 |
|---|---|
| Airport | Rome–Fiumicino Leonardo da Vinci International Airport (LIRF) |
Arrival
| Time | 2026-05-06 19:52 |
|---|---|
| Airport | Athens Eleftherios Venizelos International Airport (LGAV) |
| Time | Latitude | Longitude | Altitude | Speed | Heading |
|---|---|---|---|---|---|
| 2026-05-06 17:35 | 41.79691 | 12.25621 | 15 ft | 0 kts | 295° |
| 2026-05-06 17:36 | 41.79690 | 12.25615 | 15 ft | 0 kts | 295° |
| 2026-05-06 18:00 | 41.79689 | 12.25618 | 15 ft | 2 kts | 295° |
| 2026-05-06 18:00 | 41.79679 | 12.25647 | 18 ft | 2 kts | 295° |
| 2026-05-06 18:00 | 41.79667 | 12.25670 | 19 ft | 4 kts | 340° |
| 2026-05-06 18:00 | 41.79644 | 12.25669 | 15 ft | 3 kts | 25° |
| 2026-05-06 18:01 | 41.79656 | 12.25677 | 18 ft | 4 kts | 25° |
| 2026-05-06 18:01 | 41.79670 | 12.25685 | 16 ft | 1 kts | 25° |
| 2026-05-06 18:04 | 41.79671 | 12.25686 | 16 ft | 0 kts | 25° |
| 2026-05-06 18:04 | 41.79698 | 12.25701 | 16 ft | 5 kts | 23° |
| 2026-05-06 18:04 | 41.79725 | 12.25717 | 15 ft | 3 kts | 23° |
| 2026-05-06 18:04 | 41.79783 | 12.25753 | 15 ft | 16 kts | 26° |
| 2026-05-06 18:05 | 41.79881 | 12.25825 | 16 ft | 15 kts | 27° |
| 2026-05-06 18:05 | 41.79968 | 12.25882 | 15 ft | 13 kts | 25° |
| 2026-05-06 18:05 | 41.80051 | 12.25933 | 15 ft | 13 kts | 25° |
| 2026-05-06 18:05 | 41.80124 | 12.25978 | 16 ft | 11 kts | 25° |
| 2026-05-06 18:06 | 41.80203 | 12.26027 | 15 ft | 12 kts | 25° |
| 2026-05-06 18:06 | 41.80276 | 12.26072 | 15 ft | 15 kts | 25° |
| 2026-05-06 18:06 | 41.80382 | 12.26139 | 15 ft | 16 kts | 25° |
| 2026-05-06 18:06 | 41.80480 | 12.26184 | 15 ft | 14 kts | 16° |
| 2026-05-06 18:07 | 41.80536 | 12.26264 | 15 ft | 11 kts | 69° |
| 2026-05-06 18:07 | 41.80568 | 12.26382 | 15 ft | 19 kts | 70° |
| 2026-05-06 18:07 | 41.80617 | 12.26559 | 15 ft | 21 kts | 70° |
| 2026-05-06 18:07 | 41.80667 | 12.26743 | 16 ft | 21 kts | 70° |
| 2026-05-06 18:08 | 41.80719 | 12.26931 | 15 ft | 22 kts | 68° |
| 2026-05-06 18:08 | 41.80776 | 12.27039 | 15 ft | 13 kts | 17° |
| 2026-05-06 18:08 | 41.80855 | 12.27021 | 15 ft | 11 kts | 340° |
| 2026-05-06 18:08 | 41.80918 | 12.26991 | 15 ft | 9 kts | 340° |
| 2026-05-06 18:09 | 41.80958 | 12.26940 | 13 ft | 8 kts | 278° |
| 2026-05-06 18:09 | 41.80948 | 12.26885 | 14 ft | 0 kts | 251° |
| 2026-05-06 18:09 | 41.80937 | 12.26842 | 13 ft | 29 kts | 250° |
| 2026-05-06 18:09 | 41.80774 | 12.26256 | 20 ft | 100 kts | 250° |
| 2026-05-06 18:10 | 41.80458 | 12.25126 | 18 ft | 155 kts | 249° |
| 2026-05-06 18:10 | 41.80025 | 12.23655 | 328 ft | 172 kts | 248° |
| 2026-05-06 18:10 | 41.79627 | 12.22152 | 1041 ft | 172 kts | 244° |
| 2026-05-06 18:10 | 41.79185 | 12.20634 | 1641 ft | 176 kts | 240° |
| 2026-05-06 18:11 | 41.78411 | 12.19441 | 2188 ft | 172 kts | 207° |
| 2026-05-06 18:11 | 41.77321 | 12.18705 | 2640 ft | 181 kts | 206° |
| 2026-05-06 18:11 | 41.76137 | 12.17942 | 2988 ft | 199 kts | 200° |
| 2026-05-06 18:11 | 41.74806 | 12.17258 | 3592 ft | 205 kts | 193° |
| 2026-05-06 18:12 | 41.73313 | 12.16985 | 3995 ft | 228 kts | 184° |
| 2026-05-06 18:12 | 41.71638 | 12.16929 | 4435 ft | 248 kts | 180° |
| 2026-05-06 18:12 | 41.69886 | 12.16982 | 5185 ft | 255 kts | 179° |
| 2026-05-06 18:12 | 41.68092 | 12.17070 | 5970 ft | 260 kts | 179° |
| 2026-05-06 18:13 | 41.66263 | 12.17166 | 6796 ft | 264 kts | 179° |
| 2026-05-06 18:13 | 41.64422 | 12.17263 | 7584 ft | 268 kts | 179° |
| 2026-05-06 18:13 | 41.62548 | 12.17360 | 8374 ft | 271 kts | 179° |
| 2026-05-06 18:13 | 41.60652 | 12.17455 | 9188 ft | 273 kts | 180° |
| 2026-05-06 18:14 | 41.58735 | 12.17549 | 9975 ft | 276 kts | 179° |
| 2026-05-06 18:14 | 41.56772 | 12.17643 | 10442 ft | 292 kts | 180° |
| 2026-05-06 18:14 | 41.54706 | 12.17445 | 10661 ft | 311 kts | 190° |
| 2026-05-06 18:14 | 41.52529 | 12.16907 | 11146 ft | 322 kts | 190° |
| 2026-05-06 18:15 | 41.50306 | 12.16364 | 11838 ft | 326 kts | 190° |
| 2026-05-06 18:15 | 41.48054 | 12.15816 | 12536 ft | 331 kts | 191° |
| 2026-05-06 18:15 | 41.45779 | 12.15260 | 13268 ft | 333 kts | 191° |
| 2026-05-06 18:15 | 41.43482 | 12.14697 | 13941 ft | 337 kts | 191° |
| 2026-05-06 18:16 | 41.41160 | 12.14130 | 14574 ft | 339 kts | 191° |
| 2026-05-06 18:16 | 41.38830 | 12.13563 | 15220 ft | 341 kts | 191° |
| 2026-05-06 18:16 | 41.36486 | 12.12992 | 15864 ft | 343 kts | 191° |
| 2026-05-06 18:16 | 41.34121 | 12.12467 | 16493 ft | 346 kts | 187° |
| 2026-05-06 18:17 | 41.31708 | 12.12471 | 17161 ft | 349 kts | 175° |
| 2026-05-06 18:17 | 41.29320 | 12.13154 | 17776 ft | 354 kts | 165° |
| 2026-05-06 18:17 | 41.26956 | 12.14173 | 18366 ft | 357 kts | 165° |
| 2026-05-06 18:17 | 41.24578 | 12.15193 | 18866 ft | 360 kts | 165° |
| 2026-05-06 18:18 | 41.22175 | 12.16221 | 19346 ft | 364 kts | 166° |
| 2026-05-06 18:18 | 41.19739 | 12.17263 | 19834 ft | 368 kts | 166° |
| 2026-05-06 18:18 | 41.17317 | 12.18453 | 20307 ft | 375 kts | 158° |
| 2026-05-06 18:18 | 41.15051 | 12.20263 | 20780 ft | 385 kts | 147° |
| 2026-05-06 18:19 | 41.13033 | 12.22674 | 21242 ft | 394 kts | 140° |
| 2026-05-06 18:19 | 41.11066 | 12.25235 | 21694 ft | 398 kts | 140° |
| 2026-05-06 18:19 | 41.09080 | 12.27801 | 22159 ft | 401 kts | 141° |
| 2026-05-06 18:19 | 41.07059 | 12.30404 | 22661 ft | 405 kts | 141° |
| 2026-05-06 18:20 | 41.05026 | 12.33018 | 23121 ft | 409 kts | 141° |
| 2026-05-06 18:20 | 41.02978 | 12.35651 | 23574 ft | 412 kts | 141° |
| 2026-05-06 18:20 | 41.00909 | 12.38304 | 23954 ft | 415 kts | 141° |
| 2026-05-06 18:20 | 40.98828 | 12.40973 | 24353 ft | 417 kts | 141° |
| 2026-05-06 18:21 | 40.96739 | 12.43653 | 24775 ft | 418 kts | 142° |
| 2026-05-06 18:21 | 40.94643 | 12.46333 | 25183 ft | 419 kts | 142° |
| 2026-05-06 18:21 | 40.92539 | 12.49023 | 25560 ft | 421 kts | 142° |
| 2026-05-06 18:21 | 40.90424 | 12.51722 | 25933 ft | 423 kts | 142° |
| 2026-05-06 18:22 | 40.88304 | 12.54425 | 26291 ft | 425 kts | 142° |
| 2026-05-06 18:22 | 40.86172 | 12.57147 | 26663 ft | 426 kts | 142° |
| 2026-05-06 18:22 | 40.84034 | 12.59877 | 27030 ft | 428 kts | 142° |
| 2026-05-06 18:22 | 40.81886 | 12.62615 | 27382 ft | 430 kts | 142° |
| 2026-05-06 18:23 | 40.79727 | 12.65362 | 27723 ft | 432 kts | 142° |
| 2026-05-06 18:23 | 40.77694 | 12.68272 | 28046 ft | 440 kts | 134° |
| 2026-05-06 18:23 | 40.75985 | 12.71698 | 28372 ft | 450 kts | 126° |
| 2026-05-06 18:23 | 40.74443 | 12.75305 | 28686 ft | 452 kts | 126° |
| 2026-05-06 18:24 | 40.72873 | 12.78977 | 28956 ft | 455 kts | 126° |
| 2026-05-06 18:24 | 40.71312 | 12.82626 | 29204 ft | 458 kts | 126° |
| 2026-05-06 18:24 | 40.69739 | 12.86295 | 29483 ft | 460 kts | 126° |
| 2026-05-06 18:24 | 40.68152 | 12.89991 | 29772 ft | 462 kts | 126° |
| 2026-05-06 18:25 | 40.66579 | 12.93653 | 30037 ft | 464 kts | 126° |
| 2026-05-06 18:25 | 40.64979 | 12.97365 | 30269 ft | 466 kts | 126° |
| 2026-05-06 18:25 | 40.63369 | 13.01084 | 30506 ft | 468 kts | 126° |
| 2026-05-06 18:25 | 40.61731 | 13.04862 | 30739 ft | 469 kts | 126° |
| 2026-05-06 18:26 | 40.60131 | 13.08549 | 30959 ft | 470 kts | 126° |
| 2026-05-06 18:26 | 40.58499 | 13.12307 | 31195 ft | 471 kts | 126° |
| 2026-05-06 18:26 | 40.56870 | 13.16062 | 31487 ft | 470 kts | 125° |
| 2026-05-06 18:26 | 40.55251 | 13.19797 | 31800 ft | 469 kts | 125° |
| 2026-05-06 18:27 | 40.53652 | 13.23484 | 32123 ft | 468 kts | 125° |
| 2026-05-06 18:27 | 40.52036 | 13.27193 | 32438 ft | 466 kts | 125° |
| 2026-05-06 18:27 | 40.50422 | 13.30889 | 32756 ft | 465 kts | 125° |
| 2026-05-06 18:27 | 40.48808 | 13.34583 | 33067 ft | 464 kts | 126° |
| 2026-05-06 18:28 | 40.47744 | 13.37013 | 33283 ft | 463 kts | 126° |
| 2026-05-06 18:28 | 40.46132 | 13.40685 | 33615 ft | 462 kts | 126° |
| 2026-05-06 18:28 | 40.44530 | 13.44333 | 33938 ft | 461 kts | 126° |
| 2026-05-06 18:28 | 40.42932 | 13.47975 | 34221 ft | 459 kts | 125° |
| 2026-05-06 18:29 | 40.41335 | 13.51610 | 34454 ft | 459 kts | 125° |
| 2026-05-06 18:29 | 40.39733 | 13.55250 | 34696 ft | 458 kts | 125° |
| 2026-05-06 18:29 | 40.38131 | 13.58886 | 34915 ft | 458 kts | 125° |
| 2026-05-06 18:29 | 40.36531 | 13.62507 | 35113 ft | 458 kts | 125° |
| 2026-05-06 18:30 | 40.34951 | 13.66084 | 35329 ft | 458 kts | 125° |
| 2026-05-06 18:30 | 40.33346 | 13.69717 | 35511 ft | 459 kts | 125° |
| 2026-05-06 18:30 | 40.31745 | 13.73338 | 35703 ft | 459 kts | 125° |
| 2026-05-06 18:30 | 40.30144 | 13.76952 | 35877 ft | 458 kts | 125° |
| 2026-05-06 18:31 | 40.28535 | 13.80576 | 36092 ft | 458 kts | 125° |
| 2026-05-06 18:31 | 40.26925 | 13.84194 | 36277 ft | 458 kts | 125° |
| 2026-05-06 18:31 | 40.25313 | 13.87809 | 36444 ft | 457 kts | 125° |
| 2026-05-06 18:31 | 40.23731 | 13.91363 | 36609 ft | 457 kts | 125° |
| 2026-05-06 18:32 | 40.22127 | 13.94964 | 36772 ft | 458 kts | 125° |
| 2026-05-06 18:32 | 40.20524 | 13.98563 | 36951 ft | 457 kts | 125° |
| 2026-05-06 18:32 | 40.17309 | 14.05765 | 37015 ft | 457 kts | 125° |
| 2026-05-06 18:33 | 40.14083 | 14.12957 | 37013 ft | 456 kts | 125° |
| 2026-05-06 18:33 | 40.10885 | 14.20071 | 37010 ft | 456 kts | 125° |
| 2026-05-06 18:34 | 40.07658 | 14.27243 | 37011 ft | 457 kts | 125° |
| 2026-05-06 18:34 | 40.04419 | 14.34415 | 37009 ft | 458 kts | 125° |
| 2026-05-06 18:35 | 40.01194 | 14.41539 | 37008 ft | 458 kts | 125° |
| 2026-05-06 18:35 | 39.97951 | 14.48701 | 36996 ft | 458 kts | 125° |
| 2026-05-06 18:36 | 39.94709 | 14.55843 | 37003 ft | 458 kts | 125° |
| 2026-05-06 18:36 | 39.91445 | 14.62998 | 37006 ft | 458 kts | 125° |
| 2026-05-06 18:37 | 39.88199 | 14.70110 | 37007 ft | 458 kts | 125° |
| 2026-05-06 18:37 | 39.84939 | 14.77244 | 37007 ft | 458 kts | 125° |
| 2026-05-06 18:38 | 39.81691 | 14.84337 | 37008 ft | 458 kts | 125° |
| 2026-05-06 18:38 | 39.78408 | 14.91477 | 37009 ft | 458 kts | 125° |
| 2026-05-06 18:39 | 39.75139 | 14.98580 | 36992 ft | 458 kts | 125° |
| 2026-05-06 18:40 | 39.70201 | 15.09263 | 36995 ft | 459 kts | 125° |
| 2026-05-06 18:40 | 39.66917 | 15.16334 | 37000 ft | 459 kts | 125° |
| 2026-05-06 18:41 | 39.63619 | 15.23442 | 37017 ft | 459 kts | 125° |
| 2026-05-06 18:41 | 39.60320 | 15.30542 | 37003 ft | 459 kts | 125° |
| 2026-05-06 18:42 | 39.57007 | 15.37640 | 37021 ft | 459 kts | 125° |
| 2026-05-06 18:42 | 39.53691 | 15.44730 | 37024 ft | 460 kts | 125° |
| 2026-05-06 18:43 | 39.50387 | 15.51785 | 37042 ft | 460 kts | 125° |
| 2026-05-06 18:43 | 39.47067 | 15.58857 | 37044 ft | 460 kts | 125° |
| 2026-05-06 18:44 | 39.43721 | 15.65966 | 37045 ft | 460 kts | 125° |
| 2026-05-06 18:44 | 39.40381 | 15.73037 | 37051 ft | 460 kts | 125° |
| 2026-05-06 18:45 | 39.37050 | 15.80076 | 37064 ft | 461 kts | 124° |
| 2026-05-06 18:45 | 39.33693 | 15.87162 | 37075 ft | 461 kts | 124° |
| 2026-05-06 18:46 | 39.30338 | 15.94226 | 37104 ft | 461 kts | 125° |
| 2026-05-06 18:46 | 39.26977 | 16.01283 | 37098 ft | 461 kts | 124° |
| 2026-05-06 18:47 | 39.23630 | 16.08309 | 37112 ft | 462 kts | 124° |
| 2026-05-06 18:47 | 39.20261 | 16.15373 | 37092 ft | 462 kts | 124° |
| 2026-05-06 18:48 | 39.16881 | 16.22443 | 37087 ft | 462 kts | 124° |
| 2026-05-06 18:48 | 39.13499 | 16.29484 | 37063 ft | 462 kts | 124° |
| 2026-05-06 18:49 | 39.10113 | 16.36480 | 37050 ft | 462 kts | 124° |
| 2026-05-06 18:49 | 39.07175 | 16.43850 | 37048 ft | 465 kts | 109° |
| 2026-05-06 18:50 | 39.05750 | 16.50591 | 37073 ft | 466 kts | 105° |
| 2026-05-06 18:50 | 39.03834 | 16.59976 | 37106 ft | 466 kts | 105° |
| 2026-05-06 18:51 | 39.02164 | 16.68057 | 37131 ft | 466 kts | 105° |
| 2026-05-06 18:51 | 39.00495 | 16.76126 | 37123 ft | 466 kts | 105° |
| 2026-05-06 18:52 | 38.98824 | 16.84204 | 37112 ft | 467 kts | 105° |
| 2026-05-06 18:52 | 38.97156 | 16.92241 | 37031 ft | 467 kts | 105° |
| 2026-05-06 18:53 | 38.95476 | 17.00307 | 37025 ft | 467 kts | 105° |
| 2026-05-06 18:53 | 38.93788 | 17.08368 | 37018 ft | 467 kts | 105° |
| 2026-05-06 18:54 | 38.92104 | 17.16397 | 37020 ft | 468 kts | 105° |
| 2026-05-06 18:54 | 38.90407 | 17.24474 | 37035 ft | 468 kts | 105° |
| 2026-05-06 18:55 | 38.88701 | 17.32569 | 37048 ft | 469 kts | 105° |
| 2026-05-06 18:55 | 38.86981 | 17.40661 | 37047 ft | 469 kts | 106° |
| 2026-05-06 18:56 | 38.85264 | 17.48711 | 37081 ft | 467 kts | 106° |
| 2026-05-06 18:56 | 38.83551 | 17.56712 | 37093 ft | 466 kts | 106° |
| 2026-05-06 18:57 | 38.81827 | 17.64733 | 37092 ft | 466 kts | 106° |
| 2026-05-06 18:57 | 38.80101 | 17.72735 | 37087 ft | 465 kts | 106° |
| 2026-05-06 18:58 | 38.78377 | 17.80727 | 37073 ft | 465 kts | 106° |
| 2026-05-06 18:58 | 38.76642 | 17.88711 | 37084 ft | 464 kts | 106° |
| 2026-05-06 18:59 | 38.74913 | 17.96649 | 37082 ft | 464 kts | 106° |
| 2026-05-06 18:59 | 38.73178 | 18.04615 | 37086 ft | 464 kts | 106° |
| 2026-05-06 19:00 | 38.71724 | 18.11244 | 37068 ft | 464 kts | 106° |
| 2026-05-06 19:00 | 38.69963 | 18.19235 | 37073 ft | 464 kts | 106° |
| 2026-05-06 19:01 | 38.68201 | 18.27185 | 37077 ft | 464 kts | 106° |
| 2026-05-06 19:01 | 38.66437 | 18.35143 | 37078 ft | 464 kts | 106° |
| 2026-05-06 19:02 | 38.64678 | 18.43057 | 37076 ft | 464 kts | 106° |
| 2026-05-06 19:02 | 38.62905 | 18.51006 | 37088 ft | 463 kts | 105° |
| 2026-05-06 19:03 | 38.61131 | 18.58946 | 37092 ft | 463 kts | 105° |
| 2026-05-06 19:03 | 38.59346 | 18.66903 | 37097 ft | 463 kts | 106° |
| 2026-05-06 19:04 | 38.57572 | 18.74761 | 37089 ft | 463 kts | 106° |
| 2026-05-06 19:04 | 38.55781 | 18.82669 | 37098 ft | 463 kts | 105° |
| 2026-05-06 19:05 | 38.53997 | 18.90534 | 37108 ft | 463 kts | 105° |
| 2026-05-06 19:05 | 38.52193 | 18.98432 | 37103 ft | 463 kts | 105° |
| 2026-05-06 19:06 | 38.50950 | 19.06455 | 37094 ft | 462 kts | 98° |
| 2026-05-06 19:06 | 38.49839 | 19.14568 | 37104 ft | 462 kts | 98° |
| 2026-05-06 19:07 | 38.48724 | 19.22609 | 37113 ft | 462 kts | 98° |
| 2026-05-06 19:07 | 38.47595 | 19.30685 | 37112 ft | 462 kts | 98° |
| 2026-05-06 19:08 | 38.46462 | 19.38756 | 37109 ft | 461 kts | 98° |
| 2026-05-06 19:08 | 38.45329 | 19.46822 | 37113 ft | 461 kts | 98° |
| 2026-05-06 19:09 | 38.44195 | 19.54886 | 37105 ft | 461 kts | 98° |
| 2026-05-06 19:09 | 38.43048 | 19.62907 | 37104 ft | 462 kts | 98° |
| 2026-05-06 19:10 | 38.41890 | 19.70982 | 37094 ft | 462 kts | 98° |
| 2026-05-06 19:10 | 38.40732 | 19.79042 | 37096 ft | 462 kts | 98° |
| 2026-05-06 19:11 | 38.39578 | 19.87058 | 37105 ft | 461 kts | 98° |
| 2026-05-06 19:11 | 38.38405 | 19.95134 | 37101 ft | 461 kts | 98° |
| 2026-05-06 19:12 | 38.37234 | 20.03136 | 37098 ft | 461 kts | 98° |
| 2026-05-06 19:12 | 38.36064 | 20.11135 | 37102 ft | 461 kts | 98° |
| 2026-05-06 19:13 | 38.34872 | 20.19196 | 37099 ft | 461 kts | 99° |
| 2026-05-06 19:13 | 38.33677 | 20.27232 | 37099 ft | 461 kts | 99° |
| 2026-05-06 19:14 | 38.32490 | 20.35216 | 37104 ft | 461 kts | 99° |
| 2026-05-06 19:14 | 38.31291 | 20.43261 | 37106 ft | 462 kts | 99° |
| 2026-05-06 19:15 | 38.30090 | 20.51315 | 37113 ft | 462 kts | 99° |
| 2026-05-06 19:15 | 38.28878 | 20.59350 | 37111 ft | 461 kts | 99° |
| 2026-05-06 19:16 | 38.27661 | 20.67326 | 37107 ft | 461 kts | 99° |
| 2026-05-06 19:16 | 38.26432 | 20.75370 | 37105 ft | 461 kts | 99° |
| 2026-05-06 19:17 | 38.25209 | 20.83375 | 37107 ft | 461 kts | 99° |
| 2026-05-06 19:17 | 38.23990 | 20.91330 | 37128 ft | 461 kts | 99° |
| 2026-05-06 19:18 | 38.22750 | 20.99341 | 37119 ft | 460 kts | 99° |
| 2026-05-06 19:18 | 38.21507 | 21.07328 | 37116 ft | 460 kts | 100° |
| 2026-05-06 19:19 | 38.20261 | 21.15278 | 37130 ft | 459 kts | 100° |
| 2026-05-06 19:19 | 38.19006 | 21.23252 | 37136 ft | 459 kts | 100° |
| 2026-05-06 19:20 | 38.17758 | 21.31170 | 37141 ft | 459 kts | 100° |
| 2026-05-06 19:20 | 38.16495 | 21.39168 | 37142 ft | 460 kts | 100° |
| 2026-05-06 19:21 | 38.14426 | 21.46783 | 37136 ft | 460 kts | 116° |
| 2026-05-06 19:21 | 38.11571 | 21.54104 | 37135 ft | 461 kts | 116° |
| 2026-05-06 19:22 | 38.08752 | 21.61391 | 37119 ft | 461 kts | 116° |
| 2026-05-06 19:22 | 38.05916 | 21.68700 | 37134 ft | 461 kts | 116° |
| 2026-05-06 19:23 | 38.03084 | 21.75966 | 37123 ft | 461 kts | 116° |
| 2026-05-06 19:23 | 38.00226 | 21.83288 | 37130 ft | 461 kts | 116° |
| 2026-05-06 19:24 | 37.97371 | 21.90583 | 37126 ft | 461 kts | 116° |
| 2026-05-06 19:24 | 37.94532 | 21.97825 | 37118 ft | 461 kts | 116° |
| 2026-05-06 19:25 | 37.91662 | 22.05122 | 37119 ft | 462 kts | 116° |
| 2026-05-06 19:25 | 37.88801 | 22.12385 | 37118 ft | 462 kts | 116° |
| 2026-05-06 19:26 | 37.85925 | 22.19668 | 37113 ft | 462 kts | 116° |
| 2026-05-06 19:26 | 37.83040 | 22.26947 | 37112 ft | 462 kts | 116° |
| 2026-05-06 19:27 | 37.80172 | 22.34187 | 37105 ft | 462 kts | 116° |
| 2026-05-06 19:27 | 37.77282 | 22.41457 | 37104 ft | 462 kts | 116° |
| 2026-05-06 19:28 | 37.74377 | 22.48727 | 37104 ft | 463 kts | 117° |
| 2026-05-06 19:28 | 37.71483 | 22.55952 | 37104 ft | 463 kts | 117° |
| 2026-05-06 19:29 | 37.68664 | 22.63268 | 37098 ft | 463 kts | 114° |
| 2026-05-06 19:29 | 37.66061 | 22.70714 | 37091 ft | 464 kts | 113° |
| 2026-05-06 19:29 | 37.64767 | 22.74478 | 36525 ft | 467 kts | 113° |
| 2026-05-06 19:30 | 37.63423 | 22.78336 | 35362 ft | 478 kts | 114° |
| 2026-05-06 19:30 | 37.62080 | 22.82125 | 34602 ft | 479 kts | 114° |
| 2026-05-06 19:30 | 37.60709 | 22.85947 | 33968 ft | 476 kts | 114° |
| 2026-05-06 19:30 | 37.59334 | 22.89752 | 33293 ft | 474 kts | 114° |
| 2026-05-06 19:31 | 37.57972 | 22.93517 | 32682 ft | 470 kts | 114° |
| 2026-05-06 19:31 | 37.56621 | 22.97252 | 32189 ft | 463 kts | 114° |
| 2026-05-06 19:31 | 37.53981 | 23.04563 | 31011 ft | 458 kts | 114° |
| 2026-05-06 19:32 | 37.52667 | 23.08205 | 30518 ft | 453 kts | 114° |
| 2026-05-06 19:32 | 37.51362 | 23.11808 | 30018 ft | 449 kts | 114° |
| 2026-05-06 19:32 | 37.50060 | 23.15394 | 29388 ft | 446 kts | 114° |
| 2026-05-06 19:32 | 37.48892 | 23.18987 | 28908 ft | 440 kts | 106° |
| 2026-05-06 19:33 | 37.48248 | 23.22682 | 28467 ft | 432 kts | 95° |
| 2026-05-06 19:33 | 37.48151 | 23.26437 | 28025 ft | 424 kts | 84° |
| 2026-05-06 19:33 | 37.48426 | 23.30097 | 27580 ft | 419 kts | 82° |
| 2026-05-06 19:33 | 37.48710 | 23.33729 | 27130 ft | 414 kts | 82° |
| 2026-05-06 19:34 | 37.48986 | 23.37335 | 26678 ft | 411 kts | 82° |
| 2026-05-06 19:34 | 37.49254 | 23.40857 | 26239 ft | 408 kts | 82° |
| 2026-05-06 19:34 | 37.49524 | 23.44403 | 25794 ft | 405 kts | 82° |
| 2026-05-06 19:34 | 37.49793 | 23.47933 | 25317 ft | 403 kts | 82° |
| 2026-05-06 19:35 | 37.50060 | 23.51444 | 24857 ft | 401 kts | 82° |
| 2026-05-06 19:35 | 37.50327 | 23.54953 | 24371 ft | 400 kts | 82° |
| 2026-05-06 19:35 | 37.50589 | 23.58439 | 23892 ft | 399 kts | 82° |
| 2026-05-06 19:35 | 37.50846 | 23.61915 | 23368 ft | 398 kts | 82° |
| 2026-05-06 19:36 | 37.51095 | 23.65329 | 22886 ft | 395 kts | 82° |
| 2026-05-06 19:36 | 37.51346 | 23.68786 | 22415 ft | 392 kts | 82° |
| 2026-05-06 19:36 | 37.51596 | 23.72193 | 21949 ft | 389 kts | 82° |
| 2026-05-06 19:36 | 37.51849 | 23.75577 | 21493 ft | 386 kts | 82° |
| 2026-05-06 19:37 | 37.52095 | 23.78906 | 21040 ft | 384 kts | 82° |
| 2026-05-06 19:37 | 37.52339 | 23.82248 | 20590 ft | 382 kts | 82° |
| 2026-05-06 19:37 | 37.52499 | 23.84458 | 20291 ft | 380 kts | 82° |
| 2026-05-06 19:37 | 37.52739 | 23.87759 | 19850 ft | 378 kts | 82° |
| 2026-05-06 19:38 | 37.52978 | 23.91056 | 19409 ft | 377 kts | 82° |
| 2026-05-06 19:38 | 37.53217 | 23.94358 | 18967 ft | 375 kts | 82° |
| 2026-05-06 19:38 | 37.53454 | 23.97626 | 18527 ft | 374 kts | 82° |
| 2026-05-06 19:38 | 37.53689 | 24.00883 | 18139 ft | 370 kts | 82° |
| 2026-05-06 19:39 | 37.53921 | 24.04114 | 17687 ft | 368 kts | 82° |
| 2026-05-06 19:39 | 37.54148 | 24.07313 | 17236 ft | 366 kts | 82° |
| 2026-05-06 19:39 | 37.54372 | 24.10497 | 16792 ft | 364 kts | 82° |
| 2026-05-06 19:39 | 37.54591 | 24.13656 | 16391 ft | 361 kts | 82° |
| 2026-05-06 19:40 | 37.54809 | 24.16804 | 16080 ft | 356 kts | 82° |
| 2026-05-06 19:40 | 37.55025 | 24.19926 | 15384 ft | 362 kts | 82° |
| 2026-05-06 19:40 | 37.55272 | 24.23123 | 14595 ft | 371 kts | 79° |
| 2026-05-06 19:40 | 37.56147 | 24.26163 | 13815 ft | 372 kts | 54° |
| 2026-05-06 19:41 | 37.57951 | 24.28419 | 12953 ft | 371 kts | 29° |
| 2026-05-06 19:41 | 37.60376 | 24.29493 | 12112 ft | 371 kts | 5° |
| 2026-05-06 19:41 | 37.62956 | 24.29499 | 11291 ft | 373 kts | 354° |
| 2026-05-06 19:41 | 37.65545 | 24.29095 | 10484 ft | 375 kts | 350° |
| 2026-05-06 19:42 | 37.68117 | 24.28519 | 9677 ft | 375 kts | 349° |
| 2026-05-06 19:42 | 37.70659 | 24.27937 | 9336 ft | 363 kts | 349° |
| 2026-05-06 19:42 | 37.73090 | 24.27437 | 9200 ft | 345 kts | 351° |
| 2026-05-06 19:42 | 37.75412 | 24.27029 | 9070 ft | 329 kts | 352° |
| 2026-05-06 19:43 | 37.77634 | 24.26691 | 8950 ft | 314 kts | 353° |
| 2026-05-06 19:43 | 37.79743 | 24.26396 | 8810 ft | 301 kts | 353° |
| 2026-05-06 19:43 | 37.81781 | 24.26117 | 8695 ft | 289 kts | 353° |
| 2026-05-06 19:43 | 37.83763 | 24.25842 | 8564 ft | 283 kts | 353° |
| 2026-05-06 19:44 | 37.85721 | 24.25561 | 8437 ft | 282 kts | 353° |
| 2026-05-06 19:44 | 37.87676 | 24.25281 | 8313 ft | 282 kts | 353° |
| 2026-05-06 19:44 | 37.89622 | 24.25006 | 8189 ft | 280 kts | 353° |
| 2026-05-06 19:44 | 37.91540 | 24.24734 | 7893 ft | 276 kts | 353° |
| 2026-05-06 19:45 | 37.93423 | 24.24466 | 7495 ft | 274 kts | 353° |
| 2026-05-06 19:45 | 37.95314 | 24.24193 | 7091 ft | 273 kts | 353° |
| 2026-05-06 19:45 | 37.97212 | 24.23918 | 6663 ft | 273 kts | 353° |
| 2026-05-06 19:45 | 37.99103 | 24.23643 | 6224 ft | 274 kts | 352° |
| 2026-05-06 19:46 | 38.00956 | 24.23124 | 5793 ft | 272 kts | 340° |
| 2026-05-06 19:46 | 38.02711 | 24.22204 | 5375 ft | 271 kts | 334° |
| 2026-05-06 19:46 | 38.04395 | 24.21141 | 4964 ft | 269 kts | 331° |
| 2026-05-06 19:46 | 38.05987 | 24.19961 | 4808 ft | 257 kts | 327° |
| 2026-05-06 19:47 | 38.07409 | 24.18734 | 4726 ft | 243 kts | 323° |
| 2026-05-06 19:47 | 38.08711 | 24.17450 | 4622 ft | 231 kts | 319° |
| 2026-05-06 19:47 | 38.09914 | 24.16107 | 4528 ft | 229 kts | 316° |
| 2026-05-06 19:47 | 38.11049 | 24.14689 | 4427 ft | 228 kts | 314° |
| 2026-05-06 19:48 | 38.12051 | 24.13140 | 4348 ft | 226 kts | 291° |
| 2026-05-06 19:48 | 38.12159 | 24.11195 | 4279 ft | 223 kts | 250° |
| 2026-05-06 19:48 | 38.11288 | 24.09588 | 4203 ft | 224 kts | 223° |
| 2026-05-06 19:48 | 38.10062 | 24.08349 | 4001 ft | 227 kts | 215° |
| 2026-05-06 19:49 | 38.08776 | 24.07252 | 3707 ft | 224 kts | 213° |
| 2026-05-06 19:49 | 38.07445 | 24.06208 | 3384 ft | 224 kts | 210° |
| 2026-05-06 19:49 | 38.06127 | 24.05166 | 3078 ft | 223 kts | 214° |
| 2026-05-06 19:49 | 38.04870 | 24.04015 | 2772 ft | 221 kts | 217° |
| 2026-05-06 19:50 | 38.03643 | 24.02845 | 2489 ft | 220 kts | 217° |
| 2026-05-06 19:50 | 38.02427 | 24.01682 | 2204 ft | 217 kts | 216° |
| 2026-05-06 19:50 | 38.01220 | 24.00529 | 1899 ft | 216 kts | 216° |
| 2026-05-06 19:50 | 38.00026 | 23.99391 | 1625 ft | 214 kts | 216° |
| 2026-05-06 19:51 | 37.98840 | 23.98259 | 1342 ft | 212 kts | 217° |
| 2026-05-06 19:51 | 37.97690 | 23.97163 | 1059 ft | 199 kts | 217° |
| 2026-05-06 19:51 | 37.96622 | 23.96147 | 823 ft | 188 kts | 218° |
| 2026-05-06 19:51 | 37.95583 | 23.95156 | 599 ft | 183 kts | 218° |
| 2026-05-06 19:52 | 37.94588 | 23.94209 | 323 ft | 172 kts | 218° |
| 2026-05-06 19:52 | 37.93787 | 23.93440 | 283 ft | 85 kts | 217° |
| 2026-05-06 19:52 | 37.93468 | 23.93153 | 280 ft | 42 kts | 209° |
| 2026-05-06 19:52 | 37.93219 | 23.93110 | 276 ft | 8 kts | 178° |
| 2026-05-06 19:53 | 37.93217 | 23.93110 | 276 ft | 0 kts | 178° |
| 2026-05-06 19:53 | 37.93187 | 23.93109 | 276 ft | 7 kts | 182° |
| 2026-05-06 19:53 | 37.93139 | 23.93097 | 276 ft | 7 kts | 204° |
| 2026-05-06 19:53 | 37.93100 | 23.93067 | 275 ft | 6 kts | 215° |
| 2026-05-06 19:54 | 37.93064 | 23.93033 | 275 ft | 6 kts | 217° |
| 2026-05-06 19:54 | 37.93029 | 23.93000 | 274 ft | 6 kts | 217° |
| 2026-05-06 19:54 | 37.92993 | 23.92965 | 277 ft | 7 kts | 217° |
| 2026-05-06 19:54 | 37.92949 | 23.92923 | 273 ft | 8 kts | 217° |
| 2026-05-06 19:55 | 37.92903 | 23.92880 | 275 ft | 8 kts | 217° |
| 2026-05-06 19:55 | 37.92860 | 23.92839 | 273 ft | 8 kts | 217° |
| 2026-05-06 19:55 | 37.92788 | 23.92771 | 274 ft | 21 kts | 217° |
| 2026-05-06 19:55 | 37.92663 | 23.92651 | 271 ft | 20 kts | 217° |
| 2026-05-06 19:56 | 37.92555 | 23.92669 | 271 ft | 17 kts | 89° |
| 2026-05-06 19:56 | 37.92639 | 23.92775 | 272 ft | 18 kts | 37° |
| 2026-05-06 19:56 | 37.92742 | 23.92871 | 273 ft | 19 kts | 36° |
| 2026-05-06 19:56 | 37.92852 | 23.92974 | 277 ft | 20 kts | 36° |
| 2026-05-06 19:57 | 37.92968 | 23.93084 | 275 ft | 21 kts | 35° |
| 2026-05-06 19:57 | 37.93088 | 23.93199 | 279 ft | 22 kts | 37° |
| 2026-05-06 19:57 | 37.93215 | 23.93320 | 278 ft | 23 kts | 37° |
| 2026-05-06 19:57 | 37.93347 | 23.93445 | 282 ft | 24 kts | 37° |
| 2026-05-06 19:58 | 37.93323 | 23.93612 | 281 ft | 22 kts | 125° |
| 2026-05-06 19:58 | 37.93231 | 23.93771 | 285 ft | 23 kts | 127° |
| 2026-05-06 19:58 | 37.93134 | 23.93935 | 285 ft | 24 kts | 127° |
| 2026-05-06 19:58 | 37.93119 | 23.93960 | 285 ft | 0 kts | 127° |
| 2026-05-06 19:59 | 37.93101 | 23.93993 | 285 ft | 11 kts | 118° |
| 2026-05-06 19:59 | 37.93105 | 23.94073 | 286 ft | 8 kts | 69° |
| 2026-05-06 20:00 | 37.93143 | 23.94108 | 289 ft | 7 kts | 24° |
| 2026-05-06 20:00 | 37.93199 | 23.94150 | 286 ft | 10 kts | 40° |
| 2026-05-06 20:00 | 37.93252 | 23.94207 | 286 ft | 10 kts | 40° |
| 2026-05-06 20:00 | 37.93286 | 23.94275 | 285 ft | 9 kts | 95° |
| 2026-05-06 20:01 | 37.93259 | 23.94333 | 288 ft | 7 kts | 127° |
| 2026-05-06 20:01 | 37.93215 | 23.94408 | 288 ft | 19 kts | 127° |
| 2026-05-06 20:01 | 37.93174 | 23.94552 | 290 ft | 17 kts | 45° |
| 2026-05-06 20:01 | 37.93265 | 23.94651 | 286 ft | 18 kts | 36° |
| 2026-05-06 20:02 | 37.93374 | 23.94755 | 285 ft | 21 kts | 38° |
| 2026-05-06 20:02 | 37.93457 | 23.94836 | 284 ft | 0 kts | 37° |
| 2026-05-06 20:02 | 37.93458 | 23.94837 | 284 ft | 2 kts | 36° |
| 2026-05-06 20:03 | 37.93471 | 23.94845 | 284 ft | 6 kts | 24° |
| 2026-05-06 20:03 | 37.93560 | 23.94805 | 284 ft | 8 kts | 305° |
| 2026-05-06 20:03 | 37.93568 | 23.94790 | 285 ft | 0 kts | 304° |